createdAt,value
2018-12-03T00:01:21.685Z,7.47
2018-12-03T00:03:53.213Z,7.40
2018-12-03T00:06:24.085Z,6.77
2018-12-03T00:08:54.761Z,6.90
2018-12-03T00:11:25.737Z,6.33
2018-12-03T00:13:57.130Z,6.77
2018-12-03T00:16:27.798Z,6.37
2018-12-03T00:18:58.536Z,6.27
2018-12-03T00:21:29.251Z,6.30
2018-12-03T00:24:00.257Z,6.13
2018-12-03T00:26:30.944Z,6.40
2018-12-03T00:29:01.632Z,5.80
2018-12-03T00:31:32.314Z,6.00
2018-12-03T00:34:03.305Z,5.27
2018-12-03T00:36:34.006Z,5.80
2018-12-03T00:39:05.679Z,5.57
2018-12-03T00:41:36.649Z,4.77
2018-12-03T00:44:08.079Z,4.10
2018-12-03T00:46:38.790Z,5.10
2018-12-03T00:49:08.852Z,5.90
2018-12-03T00:51:39.558Z,5.20
2018-12-03T00:54:10.334Z,5.10
2018-12-03T00:56:41.050Z,5.00
2018-12-03T00:59:12.084Z,4.80
2018-12-03T01:01:42.785Z,5.40
2018-12-03T01:04:13.482Z,6.27
2018-12-03T01:06:44.153Z,5.90
2018-12-03T01:09:14.881Z,5.23
2018-12-03T01:11:45.617Z,5.40
2018-12-03T01:14:16.712Z,5.67
2018-12-03T01:16:47.458Z,4.57
2018-12-03T01:19:18.487Z,5.33
2018-12-03T01:21:49.460Z,4.77
2018-12-03T01:24:20.187Z,4.90
2018-12-03T01:26:51.129Z,5.10
2018-12-03T01:29:22.109Z,5.00
2018-12-03T01:31:53.125Z,4.70
2018-12-03T01:34:23.825Z,5.17
2018-12-03T01:36:54.514Z,5.67
2018-12-03T01:39:25.308Z,5.33
2018-12-03T01:41:56.470Z,4.70
2018-12-03T01:44:27.175Z,5.60
2018-12-03T01:46:57.867Z,5.67
2018-12-03T01:49:29.139Z,5.20
2018-12-03T01:51:59.853Z,5.70
2018-12-03T01:54:30.576Z,5.00
2018-12-03T01:57:01.262Z,4.53
2018-12-03T01:59:31.958Z,4.30
2018-12-03T02:02:02.727Z,4.43
2018-12-03T02:04:33.437Z,5.33
2018-12-03T02:07:04.120Z,4.43
2018-12-03T02:09:34.916Z,4.80
2018-12-03T02:12:05.716Z,4.63
2018-12-03T02:14:36.462Z,4.53
2018-12-03T02:17:07.208Z,4.20
2018-12-03T02:19:37.907Z,4.60
2018-12-03T02:22:08.665Z,5.20
2018-12-03T02:24:39.673Z,4.67
2018-12-03T02:27:11.585Z,5.00
2018-12-03T02:29:42.287Z,4.20
2018-12-03T02:32:12.997Z,5.80
2018-12-03T02:34:44.127Z,4.80
2018-12-03T02:37:14.824Z,4.90
2018-12-03T02:39:46.079Z,5.27
2018-12-03T02:42:17.426Z,5.47
2018-12-03T02:44:48.075Z,4.07
2018-12-03T02:47:19.034Z,4.37
2018-12-03T02:49:49.746Z,4.57
2018-12-03T02:52:20.795Z,4.90
2018-12-03T02:54:51.498Z,5.23
2018-12-03T02:57:22.184Z,4.43
2018-12-03T02:59:53.251Z,5.40
2018-12-03T03:02:23.967Z,4.37
2018-12-03T03:04:55.366Z,5.53
2018-12-03T03:07:26.107Z,4.60
2018-12-03T03:09:57.222Z,5.10
2018-12-03T03:12:27.919Z,5.73
2018-12-03T03:14:58.590Z,5.60
2018-12-03T03:17:30.111Z,7.13
2018-12-03T03:20:01.095Z,6.80
2018-12-03T03:22:31.814Z,8.40
2018-12-03T03:25:02.577Z,7.03
2018-12-03T03:27:33.278Z,8.10
2018-12-03T03:30:04.206Z,11.13
2018-12-03T03:32:35.222Z,10.30
2018-12-03T03:35:06.514Z,7.20
2018-12-03T03:37:37.185Z,6.47
2018-12-03T03:40:13.089Z,6.53
2018-12-03T03:42:44.953Z,6.17
2018-12-03T03:45:24.138Z,6.40
2018-12-03T03:47:54.849Z,6.10
2018-12-03T03:50:25.836Z,6.33
2018-12-03T03:52:56.531Z,6.67
2018-12-03T03:55:27.507Z,6.33
2018-12-03T03:57:58.492Z,6.33
2018-12-03T04:00:29.135Z,6.57
2018-12-03T04:02:59.836Z,7.50
2018-12-03T04:05:30.517Z,6.20
2018-12-03T04:08:01.199Z,6.40
2018-12-03T04:10:32.559Z,6.70
2018-12-03T04:13:03.510Z,6.50
2018-12-03T04:15:34.201Z,6.67
2018-12-03T04:18:05.003Z,6.70
2018-12-03T04:20:35.711Z,5.97
2018-12-03T04:23:06.608Z,6.20
2018-12-03T04:25:37.525Z,6.83
2018-12-03T04:28:08.636Z,8.33
2018-12-03T04:30:39.340Z,6.73
2018-12-03T04:33:12.579Z,6.60
2018-12-03T04:35:43.635Z,7.20
2018-12-03T04:38:14.308Z,6.73
2018-12-03T04:40:45.328Z,6.40
2018-12-03T04:43:16.005Z,6.70
2018-12-03T04:45:46.702Z,6.03
2018-12-03T04:48:17.390Z,5.13
2018-12-03T04:50:48.408Z,6.00
2018-12-03T04:53:19.109Z,5.30
2018-12-03T04:55:49.840Z,5.50
2018-12-03T04:58:20.805Z,6.53
2018-12-03T05:00:51.789Z,4.97
2018-12-03T05:03:22.512Z,5.47
2018-12-03T05:05:53.434Z,4.77
2018-12-03T05:08:24.086Z,6.03
2018-12-03T05:10:55.074Z,6.30
2018-12-03T05:13:25.731Z,4.37
2018-12-03T05:15:56.482Z,4.90
2018-12-03T05:18:27.489Z,4.47
2018-12-03T05:20:58.171Z,4.13
2018-12-03T05:23:29.109Z,3.43
2018-12-03T05:26:00.179Z,2.43
2018-12-03T05:28:30.879Z,2.53
2018-12-03T05:31:01.572Z,2.27
2018-12-03T05:33:32.639Z,1.90
2018-12-03T05:36:03.323Z,1.80
2018-12-03T05:38:34.037Z,2.20
2018-12-03T05:41:05.091Z,2.30
2018-12-03T05:43:36.424Z,3.20
2018-12-03T05:46:07.175Z,2.70
2018-12-03T05:48:38.126Z,2.60
2018-12-03T05:51:08.942Z,2.13
2018-12-03T05:53:39.622Z,3.03
2018-12-03T05:56:10.318Z,3.07
2018-12-03T05:58:40.979Z,3.07
2018-12-03T06:01:11.696Z,2.87
2018-12-03T06:03:42.395Z,2.67
2018-12-03T06:06:13.134Z,2.23
2018-12-03T06:08:44.149Z,2.10
2018-12-03T06:11:14.834Z,2.13
2018-12-03T06:13:45.566Z,1.70
2018-12-03T06:16:16.204Z,1.80
2018-12-03T06:18:46.911Z,2.10
2018-12-03T06:21:17.628Z,1.53
2018-12-03T06:23:48.712Z,1.83
2018-12-03T06:26:19.732Z,2.23
2018-12-03T06:28:50.415Z,3.10
2018-12-03T06:31:21.123Z,2.83
2018-12-03T06:33:52.201Z,2.70
2018-12-03T06:36:23.221Z,2.67
2018-12-03T06:38:54.314Z,1.77
2018-12-03T06:41:25.112Z,1.63
2018-12-03T06:43:56.061Z,1.67
2018-12-03T06:46:26.718Z,1.90
2018-12-03T06:48:57.709Z,1.80
2018-12-03T06:51:28.443Z,1.63
2018-12-03T06:53:59.120Z,1.97
2018-12-03T06:56:29.820Z,1.50
2018-12-03T06:59:00.496Z,1.90
2018-12-03T07:01:31.221Z,1.40
2018-12-03T07:04:01.930Z,1.97
2018-12-03T07:06:32.641Z,1.90
2018-12-03T07:09:03.421Z,2.33
2018-12-03T07:11:34.091Z,2.10
2018-12-03T07:14:04.856Z,2.00
2018-12-03T07:16:36.194Z,2.83
2018-12-03T07:19:07.737Z,1.93
2018-12-03T07:21:38.782Z,2.37
2018-12-03T07:24:09.825Z,1.90
2018-12-03T07:26:40.545Z,1.70
2018-12-03T07:29:11.248Z,2.10
2018-12-03T07:31:42.289Z,1.70
2018-12-03T07:34:12.943Z,1.40
2018-12-03T07:36:43.695Z,1.70
2018-12-03T07:39:14.685Z,1.03
2018-12-03T07:41:45.385Z,1.10
2018-12-03T07:44:16.067Z,1.07
2018-12-03T07:46:46.818Z,1.10
2018-12-03T07:49:17.517Z,0.70
2018-12-03T07:51:48.225Z,1.20
2018-12-03T07:54:19.230Z,1.00
2018-12-03T07:56:50.192Z,1.03
2018-12-03T07:59:20.953Z,1.03
2018-12-03T08:01:52.298Z,1.10
2018-12-03T08:04:23.006Z,1.20
2018-12-03T08:06:53.722Z,0.73
2018-12-03T08:09:24.387Z,1.40
2018-12-03T08:11:55.129Z,1.20
2018-12-03T08:14:25.841Z,1.30
2018-12-03T08:16:56.558Z,1.17
2018-12-03T08:19:27.734Z,1.03
2018-12-03T08:21:58.476Z,1.50
2018-12-03T08:24:29.169Z,1.03
2018-12-03T08:27:01.001Z,0.97
2018-12-03T08:29:31.782Z,1.20
2018-12-03T08:32:02.511Z,1.23
2018-12-03T08:34:33.489Z,1.53
2018-12-03T08:37:04.295Z,1.00
2018-12-03T08:39:35.040Z,1.40
2018-12-03T08:42:05.734Z,1.50
2018-12-03T08:44:36.446Z,1.37
2018-12-03T08:47:14.840Z,1.47
2018-12-03T08:49:45.539Z,2.00
2018-12-03T08:52:16.419Z,1.60
2018-12-03T08:54:47.122Z,1.47
2018-12-03T08:57:17.796Z,1.33
2018-12-03T08:59:48.497Z,1.00
2018-12-03T09:02:19.556Z,1.33
2018-12-03T09:04:54.368Z,1.33
2018-12-03T09:07:25.105Z,1.60
2018-12-03T09:09:55.819Z,1.10
2018-12-03T09:12:26.813Z,1.00
2018-12-03T09:14:57.516Z,1.00
2018-12-03T09:17:28.186Z,1.00
2018-12-03T09:19:58.883Z,1.00
2018-12-03T09:22:33.597Z,1.00
2018-12-03T09:25:04.492Z,0.60
2018-12-03T09:27:35.179Z,0.70
2018-12-03T09:30:07.014Z,0.93
2018-12-03T09:32:37.738Z,0.80
2018-12-03T09:35:10.591Z,0.87
2018-12-03T09:37:41.331Z,1.00
2018-12-03T09:40:26.832Z,1.37
2018-12-03T09:42:57.774Z,0.90
2018-12-03T09:45:28.741Z,1.07
2018-12-03T09:47:59.471Z,1.70
2018-12-03T09:50:30.629Z,1.93
2018-12-03T09:53:01.322Z,2.10
2018-12-03T09:55:35.849Z,2.10
2018-12-03T09:58:18.177Z,1.67
2018-12-03T10:00:49.473Z,2.33
2018-12-03T10:03:29.924Z,2.00
2018-12-03T10:06:07.199Z,2.60
2018-12-03T10:08:37.902Z,2.40
2018-12-03T10:11:08.628Z,2.30
2018-12-03T10:17:27.172Z,2.80
2018-12-03T10:19:58.234Z,3.50
2018-12-03T10:22:28.903Z,2.30
2018-12-03T10:24:59.589Z,3.00
2018-12-03T10:27:30.306Z,2.20
2018-12-03T10:30:05.113Z,2.60
2018-12-03T10:32:36.120Z,2.43
2018-12-03T10:35:07.342Z,1.90
2018-12-03T10:37:38.022Z,2.13
2018-12-03T10:40:20.820Z,1.80
2018-12-03T10:42:52.169Z,1.70
2018-12-03T10:45:26.458Z,1.47
2018-12-03T10:47:58.761Z,1.80
2018-12-03T10:50:29.875Z,1.33
2018-12-03T10:53:00.734Z,1.60
2018-12-03T10:55:31.856Z,1.60
2018-12-03T10:58:02.651Z,1.20
2018-12-03T11:00:51.556Z,1.80
2018-12-03T11:03:39.928Z,1.73
2018-12-03T11:06:17.636Z,1.27
2018-12-03T11:08:48.965Z,1.53
2018-12-03T11:11:19.985Z,1.53
2018-12-03T11:13:50.875Z,1.30
2018-12-03T11:16:34.046Z,1.23
2018-12-03T11:19:05.148Z,1.07
2018-12-03T11:21:36.167Z,1.30
2018-12-03T11:24:08.223Z,1.63
2018-12-03T11:26:43.018Z,1.80
2018-12-03T11:29:14.278Z,1.67
2018-12-03T11:31:45.419Z,2.30
2018-12-03T11:34:22.599Z,2.03
2018-12-03T11:36:59.619Z,1.70
2018-12-03T11:39:59.716Z,2.37
2018-12-03T11:42:38.734Z,2.10
2018-12-03T11:45:11.627Z,2.20
2018-12-03T11:47:42.353Z,2.20
2018-12-03T11:50:14.627Z,2.00
2018-12-03T11:52:45.409Z,2.43
2018-12-03T11:55:16.104Z,1.87
2018-12-03T11:57:47.082Z,1.90
2018-12-03T12:00:18.069Z,2.60
2018-12-03T12:02:48.795Z,2.40
2018-12-03T12:05:20.047Z,2.33
2018-12-03T12:07:50.846Z,2.73
2018-12-03T12:10:22.243Z,2.60
2018-12-03T12:12:53.174Z,2.40
2018-12-03T12:15:23.885Z,2.93
2018-12-03T12:17:54.572Z,2.80
2018-12-03T12:20:25.583Z,2.60
2018-12-03T12:22:56.576Z,3.33
2018-12-03T12:25:27.286Z,2.70
2018-12-03T12:27:59.994Z,3.47
2018-12-03T12:30:30.726Z,3.07
2018-12-03T12:33:01.642Z,3.53
2018-12-03T12:35:33.056Z,2.60
2018-12-03T12:38:03.848Z,2.60
2018-12-03T12:40:34.535Z,2.50
2018-12-03T12:43:05.212Z,3.13
2018-12-03T12:45:52.782Z,3.23
2018-12-03T12:48:23.482Z,2.83
2018-12-03T12:50:54.195Z,3.17
2018-12-03T12:53:25.027Z,2.93
2018-12-03T12:55:56.230Z,3.50
2018-12-03T12:58:26.924Z,3.53
2018-12-03T13:00:57.847Z,4.00
2018-12-03T13:03:28.556Z,3.77
2018-12-03T13:05:59.580Z,4.20
2018-12-03T13:08:30.563Z,4.17
2018-12-03T13:11:01.259Z,4.30
2018-12-03T13:13:31.987Z,4.10
2018-12-03T13:16:03.016Z,4.47
2018-12-03T13:18:33.689Z,4.10
2018-12-03T13:21:04.393Z,4.20
2018-12-03T13:23:35.719Z,4.40
2018-12-03T13:26:07.674Z,3.60
2018-12-03T13:28:38.323Z,4.10
2018-12-03T13:31:09.008Z,4.23
2018-12-03T13:33:39.755Z,4.50
2018-12-03T13:36:12.593Z,3.90
2018-12-03T13:38:43.302Z,4.43
2018-12-03T13:41:14.075Z,4.33
2018-12-03T13:43:44.766Z,4.93
2018-12-03T13:46:15.803Z,3.77
2018-12-03T13:48:46.511Z,3.73
2018-12-03T13:51:17.219Z,4.10
2018-12-03T13:53:48.467Z,3.93
2018-12-03T13:56:19.123Z,4.00
2018-12-03T13:58:49.852Z,3.37
2018-12-03T14:01:20.588Z,3.93
2018-12-03T14:03:53.139Z,5.10
2018-12-03T14:07:21.924Z,4.17
2018-12-03T14:10:29.202Z,3.20
2018-12-03T14:13:44.140Z,4.50
2018-12-03T14:17:08.965Z,4.10
2018-12-03T14:19:40.918Z,3.83
2018-12-03T14:22:25.433Z,4.57
2018-12-03T14:24:56.137Z,4.40
2018-12-03T14:27:27.121Z,4.50
2018-12-03T14:29:57.899Z,3.93
2018-12-03T14:32:29.271Z,4.53
2018-12-03T14:34:59.959Z,4.10
2018-12-03T14:37:30.728Z,4.20
2018-12-03T14:40:01.450Z,4.83
2018-12-03T14:42:32.469Z,4.20
2018-12-03T14:45:03.272Z,4.50
2018-12-03T14:47:34.274Z,4.27
2018-12-03T14:50:06.295Z,4.43
2018-12-03T14:52:36.991Z,4.77
2018-12-03T14:55:08.739Z,5.40
2018-12-03T14:57:39.479Z,4.53
2018-12-03T15:00:14.290Z,4.63
2018-12-03T15:02:45.214Z,4.70
2018-12-03T15:05:16.395Z,4.63
2018-12-03T15:07:47.107Z,5.13
2018-12-03T15:10:17.892Z,4.13
2018-12-03T15:12:48.912Z,5.20
2018-12-03T15:15:19.707Z,4.50
2018-12-03T15:17:50.633Z,4.83
2018-12-03T15:20:21.373Z,4.30
2018-12-03T15:22:52.099Z,3.40
2018-12-03T15:25:22.812Z,4.03
2018-12-03T15:27:53.837Z,4.20
2018-12-03T15:30:24.548Z,3.70
2018-12-03T15:32:55.212Z,4.00
2018-12-03T15:35:26.197Z,4.13
2018-12-03T15:37:57.196Z,3.70
2018-12-03T15:40:27.907Z,4.57
2018-12-03T15:42:58.655Z,3.90
2018-12-03T15:45:29.646Z,4.70
2018-12-03T15:48:00.326Z,3.87
2018-12-03T15:50:31.031Z,4.00
2018-12-03T15:53:02.269Z,3.77
2018-12-03T15:55:32.974Z,4.70
2018-12-03T15:58:03.650Z,4.43
2018-12-03T16:00:34.360Z,4.43
2018-12-03T16:03:05.050Z,4.17
2018-12-03T16:05:35.897Z,4.40
2018-12-03T16:08:06.592Z,3.80
2018-12-03T16:10:37.330Z,4.27
2018-12-03T16:13:08.388Z,4.20
2018-12-03T16:15:39.317Z,4.57
2018-12-03T16:18:11.962Z,4.40
2018-12-03T16:20:42.680Z,4.50
2018-12-03T16:23:13.406Z,4.50
2018-12-03T16:25:44.672Z,4.77
2018-12-03T16:28:15.712Z,3.93
2018-12-03T16:30:46.461Z,4.83
2018-12-03T16:33:17.467Z,4.90
2018-12-03T16:35:48.591Z,4.57
2018-12-03T16:38:19.299Z,4.30
2018-12-03T16:40:50.069Z,4.27
2018-12-03T16:43:21.259Z,4.77
2018-12-03T16:45:52.531Z,5.40
2018-12-03T16:48:23.627Z,4.00
2018-12-03T16:50:54.361Z,4.60
2018-12-03T16:53:25.197Z,4.07
2018-12-03T16:55:55.992Z,4.53
2018-12-03T16:58:27.020Z,3.60
2018-12-03T17:00:57.902Z,3.80
2018-12-03T17:03:28.632Z,4.20
2018-12-03T17:05:59.363Z,4.73
2018-12-03T17:08:30.118Z,5.57
2018-12-03T17:11:01.074Z,5.93
2018-12-03T17:13:32.423Z,4.53
2018-12-03T17:16:03.384Z,4.57
2018-12-03T17:18:34.160Z,5.10
2018-12-03T17:21:15.000Z,4.53
2018-12-03T17:24:12.454Z,4.70
2018-12-03T17:26:44.304Z,5.30
2018-12-03T17:29:15.040Z,5.00
2018-12-03T17:31:45.823Z,5.23
2018-12-03T17:34:16.717Z,4.70
2018-12-03T17:36:48.037Z,6.40
2018-12-03T17:39:18.953Z,5.10
2018-12-03T17:41:49.876Z,5.37
2018-12-03T17:44:20.549Z,4.63
2018-12-03T17:46:51.549Z,4.93
2018-12-03T17:49:22.322Z,4.73
2018-12-03T17:51:53.127Z,5.40
2018-12-03T17:54:23.855Z,4.90
2018-12-03T17:56:54.962Z,4.80
2018-12-03T17:59:25.675Z,5.40
2018-12-03T18:01:56.630Z,4.60
2018-12-03T18:04:27.376Z,5.43
2018-12-03T18:06:58.215Z,4.77
2018-12-03T18:09:28.947Z,5.00
2018-12-03T18:11:59.748Z,4.57
2018-12-03T18:14:30.809Z,4.83
2018-12-03T18:17:02.126Z,5.30
2018-12-03T18:19:33.555Z,6.40
2018-12-03T18:22:15.755Z,6.90
2018-12-03T18:24:50.306Z,7.30
2018-12-03T18:27:21.047Z,7.03
2018-12-03T18:29:51.821Z,7.87
2018-12-03T18:32:22.866Z,7.33
2018-12-03T18:34:54.014Z,6.07
2018-12-03T18:37:25.143Z,5.70
2018-12-03T18:39:56.116Z,4.90
2018-12-03T18:42:26.825Z,4.87
2018-12-03T18:44:57.482Z,4.53
2018-12-03T18:47:28.184Z,4.13
2018-12-03T18:50:02.879Z,6.23
2018-12-03T18:52:33.961Z,5.00
2018-12-03T18:55:04.715Z,4.63
2018-12-03T18:57:35.486Z,4.90
2018-12-03T19:00:11.217Z,5.27
2018-12-03T19:02:41.969Z,4.53
2018-12-03T19:05:12.661Z,5.27
2018-12-03T19:07:43.419Z,4.70
2018-12-03T19:10:14.098Z,4.80
2018-12-03T19:12:44.867Z,4.80
2018-12-03T19:15:15.670Z,5.87
2018-12-03T19:17:46.687Z,6.70
2018-12-03T19:20:17.379Z,7.37
2018-12-03T19:22:48.087Z,6.30
2018-12-03T19:25:18.761Z,6.43
2018-12-03T19:27:49.436Z,5.43
2018-12-03T19:30:20.136Z,6.20
2018-12-03T19:32:50.832Z,6.30
2018-12-03T19:35:21.571Z,5.13
2018-12-03T19:37:52.600Z,6.37
2018-12-03T19:40:23.311Z,4.33
2018-12-03T19:42:53.990Z,5.30
2018-12-03T19:45:24.671Z,4.10
2018-12-03T19:47:55.392Z,4.33
2018-12-03T19:50:26.104Z,4.50
2018-12-03T19:52:58.116Z,4.20
2018-12-03T19:55:29.909Z,4.60
2018-12-03T19:58:10.202Z,5.07
2018-12-03T20:00:41.841Z,5.43
2018-12-03T20:03:15.566Z,6.80
2018-12-03T20:05:46.884Z,7.10
2018-12-03T20:08:18.495Z,7.80
2018-12-03T20:10:51.800Z,7.60
2018-12-03T20:13:30.819Z,5.67
2018-12-03T20:16:01.738Z,4.20
2018-12-03T20:18:33.929Z,4.97
2018-12-03T20:21:27.761Z,5.00
2018-12-03T20:24:03.772Z,4.70
2018-12-03T20:27:25.864Z,4.50
2018-12-03T20:31:02.468Z,5.33
2018-12-03T20:34:16.913Z,6.10
2018-12-03T20:38:08.807Z,5.13
2018-12-03T20:41:09.438Z,5.47
2018-12-03T20:43:42.480Z,5.73
2018-12-03T20:46:56.924Z,4.70
2018-12-03T20:50:14.679Z,5.30
2018-12-03T20:52:48.013Z,6.87
2018-12-03T20:55:42.827Z,5.00
2018-12-03T20:58:13.520Z,5.23
2018-12-03T21:00:45.104Z,5.50
2018-12-03T21:03:16.917Z,5.33
2018-12-03T21:05:47.565Z,5.63
2018-12-03T21:08:18.577Z,5.37
2018-12-03T21:10:49.581Z,5.83
2018-12-03T21:13:21.475Z,5.50
2018-12-03T21:15:52.218Z,5.47
2018-12-03T21:18:23.270Z,4.90
2018-12-03T21:20:54.770Z,4.77
2018-12-03T21:23:26.190Z,4.77
2018-12-03T21:25:56.886Z,5.20
2018-12-03T21:28:27.865Z,4.90
2018-12-03T21:30:58.794Z,5.23
2018-12-03T21:33:29.629Z,5.80
2018-12-03T21:36:00.756Z,5.00
2018-12-03T21:38:31.463Z,4.80
2018-12-03T21:41:02.196Z,3.80
2018-12-03T21:43:32.943Z,3.80
2018-12-03T21:46:03.660Z,5.00
2018-12-03T21:48:34.654Z,4.80
2018-12-03T21:51:05.370Z,4.80
2018-12-03T21:53:36.089Z,4.60
2018-12-03T21:56:07.079Z,5.37
2018-12-03T21:58:37.789Z,4.70
2018-12-03T22:01:08.548Z,5.27
2018-12-03T22:03:39.266Z,5.00
2018-12-03T22:06:10.017Z,4.33
2018-12-03T22:08:40.708Z,4.67
2018-12-03T22:11:11.718Z,4.67
2018-12-03T22:13:42.446Z,3.63
2018-12-03T22:16:13.759Z,4.80
2018-12-03T22:18:44.462Z,4.30
2018-12-03T22:21:15.464Z,5.37
2018-12-03T22:23:46.199Z,4.13
2018-12-03T22:26:16.938Z,4.80
2018-12-03T22:28:47.688Z,3.77
2018-12-03T22:31:48.654Z,4.10
2018-12-03T22:34:22.873Z,4.43
2018-12-03T22:36:49.214Z,3.60
2018-12-03T22:39:18.388Z,3.97
2018-12-03T22:41:47.640Z,3.83
2018-12-03T22:44:16.842Z,3.37
2018-12-03T22:46:46.032Z,3.20
2018-12-03T22:49:15.260Z,3.63
2018-12-03T22:51:44.428Z,3.70
2018-12-03T22:54:13.718Z,3.50
2018-12-03T22:56:42.939Z,3.27
2018-12-03T22:59:12.072Z,3.97
2018-12-03T23:01:41.267Z,3.60
2018-12-03T23:04:10.470Z,3.70
2018-12-03T23:06:39.631Z,3.77
2018-12-03T23:09:15.790Z,3.63
2018-12-03T23:11:45.003Z,3.17
2018-12-03T23:14:14.269Z,2.93
2018-12-03T23:16:43.528Z,4.00
2018-12-03T23:19:12.768Z,3.13
2018-12-03T23:21:42.008Z,3.33
2018-12-03T23:24:11.205Z,3.10
2018-12-03T23:26:40.400Z,3.40
2018-12-03T23:29:10.254Z,2.63
2018-12-03T23:31:39.453Z,3.13
2018-12-03T23:34:08.754Z,3.83
2018-12-03T23:36:37.997Z,2.97
2018-12-03T23:39:08.504Z,2.90
2018-12-03T23:41:37.740Z,2.57
2018-12-03T23:44:06.959Z,2.60
2018-12-03T23:46:36.217Z,3.10
2018-12-03T23:49:05.434Z,3.77
2018-12-03T23:51:36.297Z,3.70
2018-12-03T23:54:06.344Z,3.47
2018-12-03T23:56:35.522Z,3.83
2018-12-03T23:59:04.745Z,3.10
